sensor_id;sensor_type;location;lat;lon;timestamp;pressure;altitude;pressure_sealevel;temperature;humidity
18436;BME280;9346;52.006;4.720;2023-04-08T00:01:16;102208.22;;;9.88;100.00
18436;BME280;9346;52.006;4.720;2023-04-08T00:03:44;102204.84;;;9.86;100.00
18436;BME280;9346;52.006;4.720;2023-04-08T00:06:11;102206.56;;;9.87;100.00
18436;BME280;9346;52.006;4.720;2023-04-08T00:08:38;102206.56;;;9.87;100.00
18436;BME280;9346;52.006;4.720;2023-04-08T00:11:07;102204.28;;;9.84;100.00
18436;BME280;9346;52.006;4.720;2023-04-08T00:13:34;102200.44;;;9.85;100.00
18436;BME280;9346;52.006;4.720;2023-04-08T00:16:01;102202.34;;;9.84;100.00
18436;BME280;9346;52.006;4.720;2023-04-08T00:18:28;102201.53;;;9.84;100.00
18436;BME280;9346;52.006;4.720;2023-04-08T00:20:55;102204.50;;;9.82;100.00
18436;BME280;9346;52.006;4.720;2023-04-08T00:23:22;102210.81;;;9.83;100.00
18436;BME280;9346;52.006;4.720;2023-04-08T00:25:49;102207.03;;;9.84;100.00
18436;BME280;9346;52.006;4.720;2023-04-08T00:28:18;102208.69;;;9.85;100.00
18436;BME280;9346;52.006;4.720;2023-04-08T00:30:45;102210.81;;;9.83;100.00
18436;BME280;9346;52.006;4.720;2023-04-08T00:33:12;102211.91;;;9.82;100.00
18436;BME280;9346;52.006;4.720;2023-04-08T00:35:38;102207.25;;;9.82;100.00
18436;BME280;9346;52.006;4.720;2023-04-08T00:38:05;102212.28;;;9.85;100.00
18436;BME280;9346;52.006;4.720;2023-04-08T00:40:33;102210.81;;;9.83;100.00
18436;BME280;9346;52.006;4.720;2023-04-08T00:43:00;102214.66;;;9.82;100.00
18436;BME280;9346;52.006;4.720;2023-04-08T00:45:29;102218.03;;;9.84;100.00
18436;BME280;9346;52.006;4.720;2023-04-08T00:47:56;102217.78;;;9.85;100.00
18436;BME280;9346;52.006;4.720;2023-04-08T00:50:23;102224.34;;;9.84;100.00
18436;BME280;9346;52.006;4.720;2023-04-08T00:52:50;102217.56;;;9.87;100.00
18436;BME280;9346;52.006;4.720;2023-04-08T00:55:16;102217.56;;;9.87;100.00
18436;BME280;9346;52.006;4.720;2023-04-08T00:57:43;102214.19;;;9.85;100.00
18436;BME280;9346;52.006;4.720;2023-04-08T01:00:12;102215.28;;;9.84;100.00
18436;BME280;9346;52.006;4.720;2023-04-08T01:02:45;102215.03;;;9.85;100.00
18436;BME280;9346;52.006;4.720;2023-04-08T01:05:25;102221.84;;;9.83;100.00
18436;BME280;9346;52.006;4.720;2023-04-08T01:07:53;102219.09;;;9.83;100.00
18436;BME280;9346;52.006;4.720;2023-04-08T01:10:22;102224.97;;;9.86;100.00
18436;BME280;9346;52.006;4.720;2023-04-08T01:12:54;102223.06;;;9.87;100.00
18436;BME280;9346;52.006;4.720;2023-04-08T01:15:23;102225.81;;;9.87;100.00
18436;BME280;9346;52.006;4.720;2023-04-08T01:17:55;102220.78;;;9.84;100.00
18436;BME280;9346;52.006;4.720;2023-04-08T01:20:23;102226.28;;;9.84;100.00
18436;BME280;9346;52.006;4.720;2023-04-08T01:23:00;102226.28;;;9.84;100.00
18436;BME280;9346;52.006;4.720;2023-04-08T01:25:31;102224.25;;;9.79;100.00
18436;BME280;9346;52.006;4.720;2023-04-08T01:28:03;102235.88;;;9.81;100.00
18436;BME280;9346;52.006;4.720;2023-04-08T01:30:31;102226.75;;;9.81;100.00
18436;BME280;9346;52.006;4.720;2023-04-08T01:33:01;102226.53;;;9.82;100.00
18436;BME280;9346;52.006;4.720;2023-04-08T01:35:29;102228.19;;;9.83;100.00
18436;BME280;9346;52.006;4.720;2023-04-08T01:37:58;102226.88;;;9.86;100.00
18436;BME280;9346;52.006;4.720;2023-04-08T01:40:25;102231.56;;;9.85;100.00
18436;BME280;9346;52.006;4.720;2023-04-08T01:42:57;102222.69;;;9.83;100.00
18436;BME280;9346;52.006;4.720;2023-04-08T01:45:27;102222.91;;;9.82;100.00
18436;BME280;9346;52.006;4.720;2023-04-08T01:47:54;102234.16;;;9.80;100.00
18436;BME280;9346;52.006;4.720;2023-04-08T01:50:22;102234.16;;;9.80;100.00
18436;BME280;9346;52.006;4.720;2023-04-08T01:52:50;102242.41;;;9.80;100.00
18436;BME280;9346;52.006;4.720;2023-04-08T01:55:19;102241.38;;;9.81;100.00
18436;BME280;9346;52.006;4.720;2023-04-08T01:57:48;102239.44;;;9.82;100.00
18436;BME280;9346;52.006;4.720;2023-04-08T02:00:19;102244.47;;;9.85;100.00
18436;BME280;9346;52.006;4.720;2023-04-08T02:02:48;102239.44;;;9.82;100.00
18436;BME280;9346;52.006;4.720;2023-04-08T02:05:16;102238.47;;;9.76;100.00
18436;BME280;9346;52.006;4.720;2023-04-08T02:07:43;102241.69;;;9.73;100.00
18436;BME280;9346;52.006;4.720;2023-04-08T02:10:11;102239.63;;;9.69;100.00
18436;BME280;9346;52.006;4.720;2023-04-08T02:12:38;102242.03;;;9.65;100.00
18436;BME280;9346;52.006;4.720;2023-04-08T02:15:07;102240.00;;;9.61;100.00
18436;BME280;9346;52.006;4.720;2023-04-08T02:17:38;102247.16;;;9.62;100.00
18436;BME280;9346;52.006;4.720;2023-04-08T02:20:10;102243.31;;;9.63;100.00
18436;BME280;9346;52.006;4.720;2023-04-08T02:22:43;102247.16;;;9.62;100.00
18436;BME280;9346;52.006;4.720;2023-04-08T02:25:15;102249.91;;;9.62;100.00
18436;BME280;9346;52.006;4.720;2023-04-08T02:27:43;102249.06;;;9.61;100.00
18436;BME280;9346;52.006;4.720;2023-04-08T02:30:12;102245.72;;;9.59;100.00
18436;BME280;9346;52.006;4.720;2023-04-08T02:32:39;102252.66;;;9.62;100.00
18436;BME280;9346;52.006;4.720;2023-04-08T02:35:10;102254.56;;;9.61;100.00
18436;BME280;9346;52.006;4.720;2023-04-08T02:37:37;102255.63;;;9.60;100.00
18436;BME280;9346;52.006;4.720;2023-04-08T02:40:23;102248.81;;;9.63;100.00
18436;BME280;9346;52.006;4.720;2023-04-08T02:42:50;102257.06;;;9.63;100.00
18436;BME280;9346;52.006;4.720;2023-04-08T02:45:17;102252.66;;;9.62;100.00
18436;BME280;9346;52.006;4.720;2023-04-08T02:47:45;102259.94;;;9.56;100.00
18436;BME280;9346;52.006;4.720;2023-04-08T02:50:13;102253.22;;;9.52;100.00
18436;BME280;9346;52.006;4.720;2023-04-08T02:52:40;102253.47;;;9.51;100.00
18436;BME280;9346;52.006;4.720;2023-04-08T02:55:09;102256.69;;;9.48;100.00
18436;BME280;9346;52.006;4.720;2023-04-08T02:57:36;102260.34;;;9.42;100.00
18436;BME280;9346;52.006;4.720;2023-04-08T03:00:04;102256.41;;;9.38;100.00
18436;BME280;9346;52.006;4.720;2023-04-08T03:02:32;102264.03;;;9.36;100.00
18436;BME280;9346;52.006;4.720;2023-04-08T03:04:59;102260.91;;;9.32;100.00
18436;BME280;9346;52.006;4.720;2023-04-08T03:07:28;102253.34;;;9.28;100.00
18436;BME280;9346;52.006;4.720;2023-04-08T03:09:54;102261.53;;;9.16;100.00
18436;BME280;9346;52.006;4.720;2023-04-08T03:12:21;102262.31;;;9.05;100.00
18436;BME280;9346;52.006;4.720;2023-04-08T03:14:49;102259.03;;;8.96;100.00
18436;BME280;9346;52.006;4.720;2023-04-08T03:17:15;102266.53;;;8.89;100.00
18436;BME280;9346;52.006;4.720;2023-04-08T03:19:42;102272.25;;;8.88;100.00
18436;BME280;9346;52.006;4.720;2023-04-08T03:22:09;102269.88;;;8.91;100.00
18436;BME280;9346;52.006;4.720;2023-04-08T03:24:37;102277.19;;;8.97;100.00
18436;BME280;9346;52.006;4.720;2023-04-08T03:27:05;102273.81;;;8.95;100.00
18436;BME280;9346;52.006;4.720;2023-04-08T03:29:32;102271.41;;;8.87;100.00
18436;BME280;9346;52.006;4.720;2023-04-08T03:31:59;102271.84;;;8.84;100.00
18436;BME280;9346;52.006;4.720;2023-04-08T03:34:26;102270.19;;;8.83;100.00
18436;BME280;9346;52.006;4.720;2023-04-08T03:36:53;102280.50;;;8.88;100.00
18436;BME280;9346;52.006;4.720;2023-04-08T03:39:20;102283.00;;;8.89;100.00
18436;BME280;9346;52.006;4.720;2023-04-08T03:41:49;102273.25;;;8.93;100.00
18436;BME280;9346;52.006;4.720;2023-04-08T03:44:15;102284.38;;;8.98;100.00
18436;BME280;9346;52.006;4.720;2023-04-08T03:46:42;102284.38;;;8.98;100.00
18436;BME280;9346;52.006;4.720;2023-04-08T03:49:09;102285.31;;;8.92;100.00
18436;BME280;9346;52.006;4.720;2023-04-08T03:51:36;102291.63;;;8.93;100.00
18436;BME280;9346;52.006;4.720;2023-04-08T03:54:03;102294.06;;;8.83;100.00
18436;BME280;9346;52.006;4.720;2023-04-08T03:56:30;102301.75;;;8.74;100.00
18436;BME280;9346;52.006;4.720;2023-04-08T03:58:58;102306.09;;;8.64;100.00
18436;BME280;9346;52.006;4.720;2023-04-08T04:01:25;102293.44;;;8.63;100.00
18436;BME280;9346;52.006;4.720;2023-04-08T04:03:53;102301.22;;;8.66;100.00
18436;BME280;9346;52.006;4.720;2023-04-08T04:06:20;102296.72;;;8.71;100.00
18436;BME280;9346;52.006;4.720;2023-04-08T04:08:47;102299.03;;;8.74;100.00
18436;BME280;9346;52.006;4.720;2023-04-08T04:11:14;102302.38;;;8.76;100.00
18436;BME280;9346;52.006;4.720;2023-04-08T04:13:41;102310.00;;;8.74;100.00
18436;BME280;9346;52.006;4.720;2023-04-08T04:16:10;102301.75;;;8.74;100.00
18436;BME280;9346;52.006;4.720;2023-04-08T04:18:36;102312.06;;;8.79;100.00
18436;BME280;9346;52.006;4.720;2023-04-08T04:21:04;102309.09;;;8.80;100.00
18436;BME280;9346;52.006;4.720;2023-04-08T04:23:32;102308.44;;;8.85;100.00
18436;BME280;9346;52.006;4.720;2023-04-08T04:25:59;102312.22;;;8.84;100.00
18436;BME280;9346;52.006;4.720;2023-04-08T04:28:26;102317.56;;;8.79;100.00
18436;BME280;9346;52.006;4.720;2023-04-08T04:30:53;102316.41;;;8.68;100.00
18436;BME280;9346;52.006;4.720;2023-04-08T04:33:21;102321.97;;;8.62;100.00
18436;BME280;9346;52.006;4.720;2023-04-08T04:35:48;102316.75;;;8.54;100.00
18436;BME280;9346;52.006;4.720;2023-04-08T04:38:15;102319.72;;;8.52;100.00
18436;BME280;9346;52.006;4.720;2023-04-08T04:40:42;102324.84;;;8.49;100.00
18436;BME280;9346;52.006;4.720;2023-04-08T04:43:09;102324.22;;;8.47;100.00
18436;BME280;9346;52.006;4.720;2023-04-08T04:45:36;102329.09;;;8.45;100.00
18436;BME280;9346;52.006;4.720;2023-04-08T04:48:03;102326.78;;;8.42;100.00
18436;BME280;9346;52.006;4.720;2023-04-08T04:50:32;102334.88;;;8.37;100.00
18436;BME280;9346;52.006;4.720;2023-04-08T04:52:59;102336.31;;;8.39;100.00
18436;BME280;9346;52.006;4.720;2023-04-08T04:55:26;102339.47;;;8.43;100.00
18436;BME280;9346;52.006;4.720;2023-04-08T04:57:53;102341.59;;;8.41;100.00
18436;BME280;9346;52.006;4.720;2023-04-08T05:00:20;102344.56;;;8.39;100.00
18436;BME280;9346;52.006;4.720;2023-04-08T05:02:47;102344.13;;;8.42;100.00
18436;BME280;9346;52.006;4.720;2023-04-08T05:05:14;102345.56;;;8.45;100.00
18436;BME280;9346;52.006;4.720;2023-04-08T05:07:42;102344.75;;;8.44;100.00
18436;BME280;9346;52.006;4.720;2023-04-08T05:10:09;102341.53;;;8.47;100.00
18436;BME280;9346;52.006;4.720;2023-04-08T05:12:36;102344.75;;;8.44;100.00
18436;BME280;9346;52.006;4.720;2023-04-08T05:15:04;102349.63;;;8.36;100.00
18436;BME280;9346;52.006;4.720;2023-04-08T05:17:32;102348.19;;;8.33;100.00
18436;BME280;9346;52.006;4.720;2023-04-08T05:19:58;102353.03;;;8.38;100.00
18436;BME280;9346;52.006;4.720;2023-04-08T05:22:26;102361.03;;;8.39;100.00
18436;BME280;9346;52.006;4.720;2023-04-08T05:24:54;102360.03;;;8.34;100.00
18436;BME280;9346;52.006;4.720;2023-04-08T05:27:21;102358.56;;;8.31;100.00
18436;BME280;9346;52.006;4.720;2023-04-08T05:29:48;102368.72;;;8.31;100.00
18436;BME280;9346;52.006;4.720;2023-04-08T05:32:15;102367.47;;;8.20;100.00
18436;BME280;9346;52.006;4.720;2023-04-08T05:34:42;102373.84;;;8.14;100.00
18436;BME280;9346;52.006;4.720;2023-04-08T05:37:10;102375.13;;;8.12;100.00
18436;BME280;9346;52.006;4.720;2023-04-08T05:39:37;102378.97;;;8.11;100.00
18436;BME280;9346;52.006;4.720;2023-04-08T05:42:06;102384.00;;;8.14;100.00
18436;BME280;9346;52.006;4.720;2023-04-08T05:44:33;102384.59;;;8.16;100.00
18436;BME280;9346;52.006;4.720;2023-04-08T05:47:00;102390.53;;;8.13;100.00
18436;BME280;9346;52.006;4.720;2023-04-08T05:49:27;102390.31;;;8.14;100.00
18436;BME280;9346;52.006;4.720;2023-04-08T05:51:53;102392.00;;;8.22;100.00
18436;BME280;9346;52.006;4.720;2023-04-08T05:54:20;102390.03;;;8.29;100.00
18436;BME280;9346;52.006;4.720;2023-04-08T05:56:47;102404.19;;;8.32;100.00
18436;BME280;9346;52.006;4.720;2023-04-08T05:59:16;102405.25;;;8.31;100.00
18436;BME280;9346;52.006;4.720;2023-04-08T06:01:43;102405.63;;;8.35;100.00
18436;BME280;9346;52.006;4.720;2023-04-08T06:04:11;102401.81;;;8.36;100.00
18436;BME280;9346;52.006;4.720;2023-04-08T06:06:39;102400.34;;;8.33;100.00
18436;BME280;9346;52.006;4.720;2023-04-08T06:09:06;102401.44;;;8.32;100.00
18436;BME280;9346;52.006;4.720;2023-04-08T06:11:34;102402.28;;;8.33;100.00
18436;BME280;9346;52.006;4.720;2023-04-08T06:14:01;102399.06;;;8.36;100.00
18436;BME280;9346;52.006;4.720;2023-04-08T06:16:33;102407.72;;;8.39;100.00
18436;BME280;9346;52.006;4.720;2023-04-08T06:19:00;102413.84;;;8.41;100.00
18436;BME280;9346;52.006;4.720;2023-04-08T06:21:28;102410.88;;;8.43;100.00
18436;BME280;9346;52.006;4.720;2023-04-08T06:23:58;102415.91;;;8.46;100.00
18436;BME280;9346;52.006;4.720;2023-04-08T06:26:27;102426.91;;;8.46;100.00
18436;BME280;9346;52.006;4.720;2023-04-08T06:28:58;102420.56;;;8.45;100.00
18436;BME280;9346;52.006;4.720;2023-04-08T06:31:40;102433.22;;;8.46;100.00
18436;BME280;9346;52.006;4.720;2023-04-08T06:34:16;102431.94;;;8.49;100.00
18436;BME280;9346;52.006;4.720;2023-04-08T06:36:44;102437.81;;;8.52;100.00
18436;BME280;9346;52.006;4.720;2023-04-08T06:39:12;102441.19;;;8.54;100.00
18436;BME280;9346;52.006;4.720;2023-04-08T06:41:40;102444.16;;;8.53;100.00
18436;BME280;9346;52.006;4.720;2023-04-08T06:44:13;102449.88;;;8.51;100.00
18436;BME280;9346;52.006;4.720;2023-04-08T06:46:44;102452.19;;;8.54;100.00
18436;BME280;9346;52.006;4.720;2023-04-08T06:49:17;102446.84;;;8.59;100.00
18436;BME280;9346;52.006;4.720;2023-04-08T06:51:48;102453.81;;;8.62;100.00
18436;BME280;9346;52.006;4.720;2023-04-08T06:54:16;102452.97;;;8.61;100.00
18436;BME280;9346;52.006;4.720;2023-04-08T06:56:45;102454.88;;;8.61;100.00
18436;BME280;9346;52.006;4.720;2023-04-08T06:59:25;102460.31;;;8.67;100.00
18436;BME280;9346;52.006;4.720;2023-04-08T07:01:56;102465.19;;;8.65;100.00
18436;BME280;9346;52.006;4.720;2023-04-08T07:04:26;102474.44;;;8.71;100.00
18436;BME280;9346;52.006;4.720;2023-04-08T07:06:55;102473.19;;;8.73;100.00
18436;BME280;9346;52.006;4.720;2023-04-08T07:09:22;102472.09;;;8.74;100.00
18436;BME280;9346;52.006;4.720;2023-04-08T07:11:49;102474.22;;;8.72;100.00
18436;BME280;9346;52.006;4.720;2023-04-08T07:14:16;102470.22;;;8.75;100.00
18436;BME280;9346;52.006;4.720;2023-04-08T07:16:43;102482.44;;;8.79;100.00
18436;BME280;9346;52.006;4.720;2023-04-08T07:19:12;102480.28;;;8.81;100.00
18436;BME280;9346;52.006;4.720;2023-04-08T07:21:39;102482.03;;;8.75;100.00
18436;BME280;9346;52.006;4.720;2023-04-08T07:24:06;102482.69;;;8.71;100.00
18436;BME280;9346;52.006;4.720;2023-04-08T07:26:33;102494.72;;;8.76;100.00
18436;BME280;9346;52.006;4.720;2023-04-08T07:29:00;102486.25;;;8.78;100.00
18436;BME280;9346;52.006;4.720;2023-04-08T07:31:26;102492.13;;;8.81;100.00
18436;BME280;9346;52.006;4.720;2023-04-08T07:33:53;102492.97;;;8.82;100.00
18436;BME280;9346;52.006;4.720;2023-04-08T07:36:23;102496.38;;;8.77;100.00
18436;BME280;9346;52.006;4.720;2023-04-08T07:38:50;102490.66;;;8.79;100.00
18436;BME280;9346;52.006;4.720;2023-04-08T07:41:17;102503.53;;;8.85;100.00
18436;BME280;9346;52.006;4.720;2023-04-08T07:43:45;102503.91;;;8.88;100.00
18436;BME280;9346;52.006;4.720;2023-04-08T07:46:12;102499.03;;;8.90;100.00
18436;BME280;9346;52.006;4.720;2023-04-08T07:48:39;102496.69;;;8.94;100.00
18436;BME280;9346;52.006;4.720;2023-04-08T07:51:07;102502.41;;;8.92;100.00
18436;BME280;9346;52.006;4.720;2023-04-08T07:53:36;102507.06;;;8.92;100.00
18436;BME280;9346;52.006;4.720;2023-04-08T07:56:09;102506.50;;;8.83;100.00
18436;BME280;9346;52.006;4.720;2023-04-08T07:58:36;102509.06;;;8.78;100.00
18436;BME280;9346;52.006;4.720;2023-04-08T08:01:05;102509.06;;;8.78;100.00
18436;BME280;9346;52.006;4.720;2023-04-08T08:03:39;102508.00;;;8.79;100.00
18436;BME280;9346;52.006;4.720;2023-04-08T08:06:06;102508.38;;;8.83;100.00
18436;BME280;9346;52.006;4.720;2023-04-08T08:08:33;102523.13;;;8.88;100.00
18436;BME280;9346;52.006;4.720;2023-04-08T08:11:02;102521.03;;;8.90;100.00
18436;BME280;9346;52.006;4.720;2023-04-08T08:13:29;102518.53;;;8.82;100.00
18436;BME280;9346;52.006;4.720;2023-04-08T08:15:56;102515.19;;;8.80;100.00
18436;BME280;9346;52.006;4.720;2023-04-08T08:18:23;102521.69;;;8.86;100.00
18436;BME280;9346;52.006;4.720;2023-04-08T08:20:50;102525.22;;;8.93;100.00
18436;BME280;9346;52.006;4.720;2023-04-08T08:23:17;102527.16;;;8.92;100.00
18436;BME280;9346;52.006;4.720;2023-04-08T08:25:44;102522.09;;;8.89;100.00
18436;BME280;9346;52.006;4.720;2023-04-08T08:28:12;102523.31;;;8.93;100.00
18436;BME280;9346;52.006;4.720;2023-04-08T08:30:39;102528.53;;;9.01;100.00
18436;BME280;9346;52.006;4.720;2023-04-08T08:33:06;102535.66;;;9.09;100.00
18436;BME280;9346;52.006;4.720;2023-04-08T08:35:33;102542.47;;;9.06;100.00
18436;BME280;9346;52.006;4.720;2023-04-08T08:38:00;102535.84;;;9.14;100.00
18436;BME280;9346;52.006;4.720;2023-04-08T08:40:27;102534.50;;;9.23;100.00
18436;BME280;9346;52.006;4.720;2023-04-08T08:42:56;102544.25;;;9.19;100.00
18436;BME280;9346;52.006;4.720;2023-04-08T08:45:27;102540.25;;;9.22;100.00
18436;BME280;9346;52.006;4.720;2023-04-08T08:47:54;102546.09;;;9.25;100.00
18436;BME280;9346;52.006;4.720;2023-04-08T08:50:22;102545.88;;;9.27;100.00
18436;BME280;9346;52.006;4.720;2023-04-08T08:52:49;102547.28;;;9.36;100.00
18436;BME280;9346;52.006;4.720;2023-04-08T08:55:17;102550.28;;;9.34;100.00
18436;BME280;9346;52.006;4.720;2023-04-08T08:57:45;102534.09;;;9.20;100.00
18436;BME280;9346;52.006;4.720;2023-04-08T09:00:13;102533.66;;;9.23;100.00
18436;BME280;9346;52.006;4.720;2023-04-08T09:02:42;102537.50;;;9.22;100.00
18436;BME280;9346;52.006;4.720;2023-04-08T09:05:09;102531.13;;;9.21;100.00
18436;BME280;9346;52.006;4.720;2023-04-08T09:07:37;102545.50;;;9.23;100.00
18436;BME280;9346;52.006;4.720;2023-04-08T09:10:06;102542.69;;;9.30;100.00
18436;BME280;9346;52.006;4.720;2023-04-08T09:12:33;102557.78;;;9.45;100.00
18436;BME280;9346;52.006;4.720;2023-04-08T09:15:04;102546.72;;;9.52;100.00
18436;BME280;9346;52.006;4.720;2023-04-08T09:17:31;102545.97;;;9.63;100.00
18436;BME280;9346;52.006;4.720;2023-04-08T09:20:10;102541.31;;;9.63;100.00
18436;BME280;9346;52.006;4.720;2023-04-08T09:22:54;102540.31;;;9.58;100.00
18436;BME280;9346;52.006;4.720;2023-04-08T09:25:23;102543.13;;;9.51;100.00
18436;BME280;9346;52.006;4.720;2023-04-08T09:27:50;102541.81;;;9.54;100.00
18436;BME280;9346;52.006;4.720;2023-04-08T09:30:19;102537.63;;;9.51;100.00
18436;BME280;9346;52.006;4.720;2023-04-08T09:32:47;102526.63;;;9.51;100.00
18436;BME280;9346;52.006;4.720;2023-04-08T09:35:17;102526.63;;;9.51;100.00
18436;BME280;9346;52.006;4.720;2023-04-08T09:37:44;102532.66;;;9.60;100.00
18436;BME280;9346;52.006;4.720;2023-04-08T09:40:11;102535.34;;;9.66;100.00
18436;BME280;9346;52.006;4.720;2023-04-08T09:42:41;102534.13;;;9.62;100.00
18436;BME280;9346;52.006;4.720;2023-04-08T09:45:11;102534.81;;;9.58;100.00
18436;BME280;9346;52.006;4.720;2023-04-08T09:47:50;102529.44;;;9.63;100.00
18436;BME280;9346;52.006;4.720;2023-04-08T09:50:26;102537.88;;;9.68;100.00
18436;BME280;9346;52.006;4.720;2023-04-08T09:53:00;102543.25;;;9.81;100.00
18436;BME280;9346;52.006;4.720;2023-04-08T09:55:35;102533.41;;;9.91;100.00
18436;BME280;9346;52.006;4.720;2023-04-08T09:58:07;102531.16;;;10.00;100.00
18436;BME280;9346;52.006;4.720;2023-04-08T10:00:38;102530.88;;;10.08;100.00
18436;BME280;9346;52.006;4.720;2023-04-08T10:03:19;102528.06;;;10.14;100.00
18436;BME280;9346;52.006;4.720;2023-04-08T10:05:53;102534.31;;;10.21;100.00
18436;BME280;9346;52.006;4.720;2023-04-08T10:11:42;102520.59;;;10.33;100.00
18436;BME280;9346;52.006;4.720;2023-04-08T10:14:09;102528.00;;;10.50;100.00
18436;BME280;9346;52.006;4.720;2023-04-08T10:16:36;102529.41;;;10.71;100.00
18436;BME280;9346;52.006;4.720;2023-04-08T10:19:36;102527.88;;;10.86;100.00
18436;BME280;9346;52.006;4.720;2023-04-08T10:25:31;102517.50;;;11.00;100.00
18436;BME280;9346;52.006;4.720;2023-04-08T10:27:59;102501.75;;;11.00;100.00
18436;BME280;9346;52.006;4.720;2023-04-08T10:30:39;102503.47;;;11.01;100.00
18436;BME280;9346;52.006;4.720;2023-04-08T10:33:09;102497.81;;;11.08;100.00
18436;BME280;9346;52.006;4.720;2023-04-08T10:35:38;102503.97;;;11.21;100.00
18436;BME280;9346;52.006;4.720;2023-04-08T10:38:07;102496.31;;;11.23;100.00
18436;BME280;9346;52.006;4.720;2023-04-08T10:40:36;102492.84;;;11.28;100.00
18436;BME280;9346;52.006;4.720;2023-04-08T10:43:06;102489.47;;;11.38;100.00
18436;BME280;9346;52.006;4.720;2023-04-08T10:45:33;102490.06;;;11.40;100.00
18436;BME280;9346;52.006;4.720;2023-04-08T10:48:14;102491.59;;;11.47;100.00
18436;BME280;9346;52.006;4.720;2023-04-08T10:50:42;102490.66;;;11.65;100.00
18436;BME280;9346;52.006;4.720;2023-04-08T10:53:09;102491.25;;;11.78;100.00
18436;BME280;9346;52.006;4.720;2023-04-08T10:55:40;102488.50;;;11.78;100.00
18436;BME280;9346;52.006;4.720;2023-04-08T10:58:09;102493.50;;;11.93;100.00
18436;BME280;9346;52.006;4.720;2023-04-08T11:00:38;102491.13;;;11.96;100.00
18436;BME280;9346;52.006;4.720;2023-04-08T11:03:07;102487.38;;;11.91;100.00
18436;BME280;9346;52.006;4.720;2023-04-08T11:05:35;102482.47;;;11.93;100.00
18436;BME280;9346;52.006;4.720;2023-04-08T11:08:03;102486.91;;;11.94;100.00
18436;BME280;9346;52.006;4.720;2023-04-08T11:10:32;102496.16;;;11.99;100.00
18436;BME280;9346;52.006;4.720;2023-04-08T11:13:05;102490.47;;;12.06;100.00
18436;BME280;9346;52.006;4.720;2023-04-08T11:15:33;102490.72;;;12.04;100.00
18436;BME280;9346;52.006;4.720;2023-04-08T11:18:02;102482.69;;;12.03;100.00
18436;BME280;9346;52.006;4.720;2023-04-08T11:20:30;102485.69;;;12.01;100.00
18436;BME280;9346;52.006;4.720;2023-04-08T11:22:58;102482.44;;;12.04;100.00
18436;BME280;9346;52.006;4.720;2023-04-08T11:25:26;102483.53;;;12.03;100.00
18436;BME280;9346;52.006;4.720;2023-04-08T11:27:53;102479.53;;;12.11;100.00
18436;BME280;9346;52.006;4.720;2023-04-08T11:30:22;102480.25;;;12.18;100.00
18436;BME280;9346;52.006;4.720;2023-04-08T11:32:50;102482.72;;;12.31;100.00
18436;BME280;9346;52.006;4.720;2023-04-08T11:35:17;102479.78;;;12.37;100.00
18436;BME280;9346;52.006;4.720;2023-04-08T11:37:44;102474.72;;;12.46;100.00
18436;BME280;9346;52.006;4.720;2023-04-08T11:40:19;102474.06;;;12.55;100.00
18436;BME280;9346;52.006;4.720;2023-04-08T11:42:48;102473.81;;;12.57;100.00
18436;BME280;9346;52.006;4.720;2023-04-08T11:45:16;102474.66;;;12.57;100.00
18436;BME280;9346;52.006;4.720;2023-04-08T11:47:45;102482.78;;;12.64;100.00
18436;BME280;9346;52.006;4.720;2023-04-08T11:50:21;102465.72;;;12.67;100.00
18436;BME280;9346;52.006;4.720;2023-04-08T11:52:49;102470.38;;;12.66;100.00
18436;BME280;9346;52.006;4.720;2023-04-08T11:55:25;102472.75;;;12.74;100.00
18436;BME280;9346;52.006;4.720;2023-04-08T11:57:53;102467.81;;;12.76;100.00
18436;BME280;9346;52.006;4.720;2023-04-08T12:00:21;102477.38;;;12.85;100.00
18436;BME280;9346;52.006;4.720;2023-04-08T12:02:50;102474.69;;;12.90;100.00
18436;BME280;9346;52.006;4.720;2023-04-08T12:05:17;102481.16;;;12.96;100.00
18436;BME280;9346;52.006;4.720;2023-04-08T12:07:44;102471.28;;;13.00;100.00
18436;BME280;9346;52.006;4.720;2023-04-08T12:10:12;102467.78;;;13.04;100.00
18436;BME280;9346;52.006;4.720;2023-04-08T12:12:39;102466.44;;;13.07;100.00
18436;BME280;9346;52.006;4.720;2023-04-08T12:15:08;102468.88;;;13.03;100.00
18436;BME280;9346;52.006;4.720;2023-04-08T12:17:35;102471.31;;;13.16;100.00
18436;BME280;9346;52.006;4.720;2023-04-08T12:20:06;102468.03;;;13.19;100.00
18436;BME280;9346;52.006;4.720;2023-04-08T12:22:33;102464.75;;;13.22;100.00
18436;BME280;9346;52.006;4.720;2023-04-08T12:25:00;102468.44;;;13.28;100.00
18436;BME280;9346;52.006;4.720;2023-04-08T12:27:28;102460.47;;;13.31;100.00
18436;BME280;9346;52.006;4.720;2023-04-08T12:29:55;102464.00;;;13.27;100.00
18436;BME280;9346;52.006;4.720;2023-04-08T12:32:21;102464.25;;;13.25;100.00
18436;BME280;9346;52.006;4.720;2023-04-08T12:34:49;102466.28;;;13.30;100.00
18436;BME280;9346;52.006;4.720;2023-04-08T12:37:18;102476.84;;;13.33;100.00
18436;BME280;9346;52.006;4.720;2023-04-08T12:39:45;102467.75;;;13.37;100.00
18436;BME280;9346;52.006;4.720;2023-04-08T12:42:12;102465.06;;;13.42;100.00
18436;BME280;9346;52.006;4.720;2023-04-08T12:44:39;102470.09;;;13.45;100.00
18436;BME280;9346;52.006;4.720;2023-04-08T12:47:06;102466.47;;;13.45;100.00
18436;BME280;9346;52.006;4.720;2023-04-08T12:49:32;102473.88;;;13.56;100.00
18436;BME280;9346;52.006;4.720;2023-04-08T12:51:59;102465.09;;;13.64;100.00
18436;BME280;9346;52.006;4.720;2023-04-08T12:54:28;102467.97;;;13.69;100.00
18436;BME280;9346;52.006;4.720;2023-04-08T12:56:55;102471.41;;;13.81;100.00
18436;BME280;9346;52.006;4.720;2023-04-08T12:59:22;102471.97;;;13.78;100.00
18436;BME280;9346;52.006;4.720;2023-04-08T13:01:49;102474.19;;;13.81;100.00
18436;BME280;9346;52.006;4.720;2023-04-08T13:04:16;102467.31;;;13.84;100.00
18436;BME280;9346;52.006;4.720;2023-04-08T13:06:44;102468.41;;;13.83;100.00
18436;BME280;9346;52.006;4.720;2023-04-08T13:09:11;102468.66;;;13.81;100.00
18436;BME280;9346;52.006;4.720;2023-04-08T13:11:41;102463.03;;;13.93;100.00